createdAt,value
2023-03-01T00:04:01.732Z,78.01
2023-03-01T00:09:03.702Z,78.61
2023-03-01T00:14:05.403Z,78.48
2023-03-01T00:19:09.070Z,77.47
2023-03-01T00:24:11.565Z,78.04
2023-03-01T00:29:13.387Z,77.86
2023-03-01T00:34:14.919Z,77.84
2023-03-01T00:39:16.402Z,77.41
2023-03-01T00:44:18.089Z,78.76
2023-03-01T00:49:19.665Z,78.69
2023-03-01T00:54:21.212Z,78.76
2023-03-01T00:59:22.678Z,79.74
2023-03-01T01:04:24.389Z,78.58
2023-03-01T01:09:25.816Z,78.59
2023-03-01T01:14:27.318Z,77.85
2023-03-01T01:19:29.038Z,78.65
2023-03-01T01:24:30.970Z,79.16
2023-03-01T01:29:32.545Z,79.15
2023-03-01T01:34:34.215Z,78.30
2023-03-01T01:39:36.306Z,78.25
2023-03-01T01:44:37.796Z,77.73
2023-03-01T01:49:42.785Z,78.96
2023-03-01T01:54:53.726Z,78.48
2023-03-01T01:59:59.692Z,80.18
2023-03-01T02:05:10.218Z,79.80
2023-03-01T02:10:11.729Z,79.27
2023-03-01T02:15:13.260Z,79.88
2023-03-01T02:20:33.043Z,78.79
2023-03-01T02:25:36.865Z,80.45
2023-03-01T02:30:38.351Z,79.84
2023-03-01T02:35:39.917Z,79.45
2023-03-01T02:40:41.531Z,79.56
2023-03-01T02:45:50.112Z,80.65
2023-03-01T02:51:03.432Z,80.62
2023-03-01T02:56:04.917Z,80.46
2023-03-01T03:01:06.421Z,81.64
2023-03-01T03:06:07.834Z,80.21
2023-03-01T03:11:09.195Z,81.83
2023-03-01T03:16:10.720Z,81.44
2023-03-01T03:21:12.634Z,81.91
2023-03-01T03:26:13.936Z,80.70
2023-03-01T03:31:15.954Z,80.83
2023-03-01T03:36:18.256Z,81.64
2023-03-01T03:41:19.574Z,82.33
2023-03-01T03:46:21.032Z,80.59
2023-03-01T03:51:22.482Z,80.80
2023-03-01T03:56:23.951Z,81.65
2023-03-01T04:01:25.384Z,82.16
2023-03-01T04:06:26.917Z,82.76
2023-03-01T04:11:28.242Z,82.35
2023-03-01T04:16:30.160Z,81.91
2023-03-01T04:21:31.862Z,82.36
2023-03-01T04:26:33.531Z,81.26
2023-03-01T04:31:34.949Z,82.52
2023-03-01T04:36:37.017Z,81.52
2023-03-01T04:41:39.330Z,81.15
2023-03-01T04:46:40.813Z,82.82
2023-03-01T04:51:42.297Z,82.17
2023-03-01T04:56:43.797Z,82.66
2023-03-01T05:01:45.117Z,82.16
2023-03-01T05:06:46.479Z,82.11
2023-03-01T05:11:47.889Z,82.17
2023-03-01T05:16:49.322Z,81.71
2023-03-01T05:21:50.774Z,82.04
2023-03-01T05:26:52.124Z,83.94
2023-03-01T05:31:54.102Z,82.32
2023-03-01T05:36:56.274Z,83.62
2023-03-01T05:41:58.861Z,81.91
2023-03-01T05:47:00.358Z,82.79
2023-03-01T05:52:01.947Z,82.55
2023-03-01T05:57:03.307Z,83.56
2023-03-01T06:02:04.658Z,82.48
2023-03-01T06:07:06.260Z,82.24
2023-03-01T06:12:07.681Z,82.77
2023-03-01T06:17:09.035Z,82.35
2023-03-01T06:22:10.365Z,82.60
2023-03-01T06:27:11.937Z,82.61
2023-03-01T06:32:13.319Z,83.69
2023-03-01T06:37:14.800Z,83.73
2023-03-01T06:42:16.133Z,83.46
2023-03-01T06:47:17.449Z,82.16
2023-03-01T06:52:18.821Z,83.06
2023-03-01T06:57:20.231Z,83.31
2023-03-01T07:02:21.678Z,83.23
2023-03-01T07:07:23.176Z,83.71
2023-03-01T07:12:24.593Z,84.09
2023-03-01T07:17:25.949Z,82.81
2023-03-01T07:22:27.390Z,82.54
2023-03-01T07:27:28.761Z,83.30
2023-03-01T07:32:30.220Z,83.17
2023-03-01T07:37:31.748Z,82.95
2023-03-01T07:42:33.188Z,83.40
2023-03-01T07:47:34.768Z,82.86
2023-03-01T07:52:36.239Z,82.90
2023-03-01T07:57:37.707Z,84.23
2023-03-01T08:02:39.150Z,84.67
2023-03-01T08:07:40.619Z,82.67
2023-03-01T08:12:41.948Z,82.50
2023-03-01T08:17:43.292Z,83.87
2023-03-01T08:22:44.697Z,81.63
2023-03-01T08:27:46.089Z,79.09
2023-03-01T08:32:47.649Z,77.41
2023-03-01T08:37:49.097Z,71.75
2023-03-01T08:42:50.504Z,73.23
2023-03-01T08:47:53.398Z,73.33
2023-03-01T08:52:54.758Z,71.20
2023-03-01T08:57:56.432Z,68.43
2023-03-01T09:02:57.822Z,68.86
2023-03-01T09:07:59.274Z,67.23
2023-03-01T09:13:00.631Z,66.54
2023-03-01T09:18:01.991Z,67.34
2023-03-01T09:23:03.570Z,66.93
2023-03-01T09:28:05.008Z,66.68
2023-03-01T09:33:06.397Z,65.60
2023-03-01T09:38:07.802Z,65.02
2023-03-01T09:43:16.481Z,64.33
2023-03-01T09:48:19.747Z,63.45
2023-03-01T09:53:23.071Z,63.47
2023-03-01T09:58:48.768Z,62.53
2023-03-01T10:04:01.156Z,61.23
2023-03-01T10:09:05.445Z,61.75
2023-03-01T10:14:16.397Z,61.56
2023-03-01T10:19:26.619Z,60.42
2023-03-01T10:24:30.067Z,60.34
2023-03-01T10:29:36.230Z,61.25
2023-03-01T10:34:37.767Z,61.62
2023-03-01T10:39:54.978Z,60.78
2023-03-01T10:44:56.538Z,60.81
2023-03-01T10:50:02.216Z,61.33
2023-03-01T10:55:22.341Z,61.35
2023-03-01T11:00:27.113Z,60.71
2023-03-01T11:05:28.944Z,60.50
2023-03-01T11:10:31.695Z,59.93
2023-03-01T11:15:33.085Z,60.42
2023-03-01T11:20:36.539Z,59.66
2023-03-01T11:25:38.886Z,60.19
2023-03-01T11:31:06.799Z,60.69
2023-03-01T11:36:31.943Z,60.34
2023-03-01T11:41:35.299Z,61.45
2023-03-01T11:46:44.150Z,60.33
2023-03-01T11:51:54.880Z,60.13
2023-03-01T11:57:11.613Z,60.34
2023-03-01T12:02:22.996Z,58.18
2023-03-01T12:07:33.652Z,59.95
2023-03-01T12:12:47.120Z,60.54
2023-03-01T12:17:57.700Z,60.15
2023-03-01T12:23:20.680Z,59.34
2023-03-01T12:28:32.054Z,58.37
2023-03-01T12:33:33.437Z,59.21
2023-03-01T12:38:49.656Z,58.55
2023-03-01T12:44:09.726Z,57.81
2023-03-01T12:49:11.308Z,58.83
2023-03-01T12:54:16.110Z,58.38
2023-03-01T12:59:42.422Z,56.53
2023-03-01T13:05:02.552Z,58.20
2023-03-01T13:10:33.156Z,57.95
2023-03-01T13:15:35.785Z,57.35
2023-03-01T13:20:43.056Z,57.51
2023-03-01T13:25:59.603Z,57.84
2023-03-01T13:31:05.033Z,56.90
2023-03-01T13:36:07.746Z,56.38
2023-03-01T13:41:09.269Z,56.40
2023-03-01T13:46:12.764Z,55.17
2023-03-01T13:51:14.257Z,55.43
2023-03-01T13:56:36.952Z,54.19
2023-03-01T14:01:38.444Z,55.40
2023-03-01T14:06:39.968Z,53.40
2023-03-01T14:11:53.756Z,53.97
2023-03-01T14:17:13.697Z,54.21
2023-03-01T14:22:25.639Z,57.33
2023-03-01T14:27:28.014Z,55.93
2023-03-01T14:32:31.236Z,54.20
2023-03-01T14:37:34.015Z,53.22
2023-03-01T14:42:36.901Z,54.54
2023-03-01T14:47:38.344Z,55.02
2023-03-01T14:52:41.260Z,55.22
2023-03-01T14:57:47.780Z,52.85
2023-03-01T15:02:50.894Z,53.83
2023-03-01T15:07:53.193Z,55.07
2023-03-01T15:12:54.558Z,52.16
2023-03-01T15:17:57.647Z,54.13
2023-03-01T15:23:00.373Z,56.50
2023-03-01T15:28:02.683Z,52.79
2023-03-01T15:33:22.920Z,53.25
2023-03-01T15:38:26.834Z,54.05
2023-03-01T15:43:38.478Z,54.42
2023-03-01T15:48:39.903Z,54.21
2023-03-01T15:53:52.778Z,53.85
2023-03-01T15:58:58.590Z,54.52
2023-03-01T16:04:00.036Z,52.87
2023-03-01T16:09:01.503Z,52.94
2023-03-01T16:14:03.292Z,52.83
2023-03-01T16:19:04.718Z,53.71
2023-03-01T16:24:06.396Z,53.83
2023-03-01T16:29:07.697Z,57.35
2023-03-01T16:34:09.075Z,54.73
2023-03-01T16:39:10.377Z,56.45
2023-03-01T16:44:11.770Z,56.00
2023-03-01T16:49:13.123Z,55.22
2023-03-01T16:54:14.606Z,53.55
2023-03-01T16:59:15.946Z,54.08
2023-03-01T17:04:18.711Z,56.65
2023-03-01T17:09:20.752Z,54.53
2023-03-01T17:14:22.261Z,55.13
2023-03-01T17:19:23.641Z,56.99
2023-03-01T17:24:25.027Z,58.28
2023-03-01T17:29:26.369Z,59.94
2023-03-01T17:34:27.929Z,57.38
2023-03-01T17:39:31.439Z,58.99
2023-03-01T17:44:33.659Z,60.04
2023-03-01T17:49:35.130Z,58.52
2023-03-01T17:54:36.558Z,60.08
2023-03-01T17:59:38.158Z,60.22
2023-03-01T18:04:39.511Z,61.27
2023-03-01T18:09:40.881Z,62.02
2023-03-01T18:14:42.210Z,64.19
2023-03-01T18:19:43.614Z,64.59
2023-03-01T18:24:45.000Z,63.82
2023-03-01T18:29:46.436Z,65.60
2023-03-01T18:34:47.824Z,64.57
2023-03-01T18:39:52.404Z,64.98
2023-03-01T18:44:53.894Z,64.84
2023-03-01T18:49:55.359Z,65.43
2023-03-01T18:54:57.486Z,67.39
2023-03-01T18:59:58.829Z,66.39
2023-03-01T19:05:00.271Z,66.43
2023-03-01T19:10:01.673Z,67.63
2023-03-01T19:15:03.641Z,67.44
2023-03-01T19:20:05.363Z,68.03
2023-03-01T19:25:07.124Z,67.55
2023-03-01T19:30:08.861Z,67.29
2023-03-01T19:35:10.240Z,67.46
2023-03-01T19:40:11.845Z,66.89
2023-03-01T19:45:14.626Z,67.21
2023-03-01T19:50:16.224Z,66.80
2023-03-01T19:55:17.544Z,68.63
2023-03-01T20:00:19.055Z,68.31
2023-03-01T20:05:20.489Z,67.62
2023-03-01T20:10:21.925Z,67.72
2023-03-01T20:15:23.259Z,66.92
2023-03-01T20:20:24.598Z,67.33
2023-03-01T20:25:25.953Z,67.80
2023-03-01T20:30:27.323Z,67.53
2023-03-01T20:35:28.716Z,69.38
2023-03-01T20:40:30.697Z,69.14
2023-03-01T20:45:32.449Z,69.13
2023-03-01T20:50:35.922Z,68.95
2023-03-01T20:55:37.996Z,69.68
2023-03-01T21:00:39.440Z,69.57
2023-03-01T21:05:40.780Z,70.26
2023-03-01T21:10:42.240Z,69.05
2023-03-01T21:15:51.457Z,70.49
2023-03-01T21:20:52.854Z,70.60
2023-03-01T21:26:04.842Z,69.43
2023-03-01T21:31:08.988Z,70.74
2023-03-01T21:36:11.018Z,70.09
2023-03-01T21:41:13.857Z,70.17
2023-03-01T21:46:16.547Z,70.07
2023-03-01T21:51:19.199Z,70.20
2023-03-01T21:56:22.055Z,70.51
2023-03-01T22:01:24.713Z,71.27
2023-03-01T22:06:27.684Z,71.18
2023-03-01T22:11:29.095Z,69.97
2023-03-01T22:16:31.849Z,70.01
2023-03-01T22:21:33.755Z,70.64
2023-03-01T22:26:39.785Z,71.52
2023-03-01T22:31:41.919Z,71.21
2023-03-01T22:36:43.382Z,70.90
2023-03-01T22:41:45.727Z,72.32
2023-03-01T22:46:47.244Z,71.57
2023-03-01T22:51:49.056Z,71.63
2023-03-01T22:56:50.487Z,72.61
2023-03-01T23:01:52.713Z,72.96
2023-03-01T23:06:54.450Z,72.33
2023-03-01T23:11:56.699Z,72.90
2023-03-01T23:16:58.338Z,73.28
2023-03-01T23:22:00.045Z,72.83
2023-03-01T23:27:01.854Z,74.25
2023-03-01T23:32:03.447Z,74.11
2023-03-01T23:37:05.084Z,74.58
2023-03-01T23:42:06.779Z,74.03
2023-03-01T23:47:08.125Z,73.51
2023-03-01T23:52:12.312Z,74.03
2023-03-01T23:57:13.864Z,73.92
